createdAt,value
2019-02-25T00:01:14.835Z,7.63
2019-02-25T00:03:15.036Z,7.69
2019-02-25T00:05:14.790Z,7.69
2019-02-25T00:07:14.851Z,7.63
2019-02-25T00:09:14.766Z,7.63
2019-02-25T00:11:14.841Z,7.63
2019-02-25T00:11:31.805Z,7.63
2019-02-25T00:13:14.866Z,7.63
2019-02-25T00:15:14.806Z,7.75
2019-02-25T00:17:14.839Z,7.63
2019-02-25T00:19:14.825Z,7.63
2019-02-25T00:21:15.798Z,7.56
2019-02-25T00:23:14.899Z,7.5
2019-02-25T00:25:15.724Z,7.5
2019-02-25T00:26:31.777Z,7.44
2019-02-25T00:27:14.744Z,7.44
2019-02-25T00:29:14.923Z,7.31
2019-02-25T00:31:14.815Z,7.31
2019-02-25T00:33:14.757Z,7.25
2019-02-25T00:35:14.845Z,7.19
2019-02-25T00:37:14.823Z,7.25
2019-02-25T00:39:14.810Z,7.25
2019-02-25T00:41:14.817Z,7.25
2019-02-25T00:41:31.753Z,7.25
2019-02-25T00:43:14.748Z,7.19
2019-02-25T00:45:14.804Z,7.19
2019-02-25T00:47:14.849Z,7.19
2019-02-25T00:49:14.963Z,7.13
2019-02-25T00:51:14.819Z,7
2019-02-25T00:53:14.864Z,6.94
2019-02-25T00:55:14.822Z,6.94
2019-02-25T00:56:31.811Z,6.88
2019-02-25T00:57:14.797Z,6.88
2019-02-25T00:59:14.855Z,6.88
2019-02-25T01:01:14.817Z,6.81
2019-02-25T01:03:14.730Z,6.75
2019-02-25T01:05:14.855Z,6.63
2019-02-25T01:07:14.838Z,6.5
2019-02-25T01:09:14.857Z,6.31
2019-02-25T01:11:14.794Z,6.25
2019-02-25T01:11:31.788Z,6.19
2019-02-25T01:13:14.815Z,6.19
2019-02-25T01:15:14.866Z,6.06
2019-02-25T01:17:14.844Z,6.06
2019-02-25T01:19:14.828Z,6
2019-02-25T01:21:14.845Z,5.94
2019-02-25T01:23:14.855Z,5.94
2019-02-25T01:25:14.809Z,5.94
2019-02-25T01:26:31.708Z,6
2019-02-25T01:27:14.815Z,6.06
2019-02-25T01:29:14.806Z,6.06
2019-02-25T01:31:14.848Z,6.19
2019-02-25T01:33:14.817Z,6.19
2019-02-25T01:35:14.850Z,6.19
2019-02-25T01:37:14.809Z,6.19
2019-02-25T01:39:14.858Z,6.13
2019-02-25T01:41:14.747Z,6.13
2019-02-25T01:41:31.755Z,6.06
2019-02-25T01:43:14.832Z,6
2019-02-25T01:45:14.843Z,5.94
2019-02-25T01:47:14.837Z,5.94
2019-02-25T01:49:14.863Z,5.94
2019-02-25T01:51:14.821Z,5.94
2019-02-25T01:53:14.833Z,5.94
2019-02-25T01:55:14.875Z,5.94
2019-02-25T01:56:32.570Z,5.88
2019-02-25T01:57:14.816Z,5.81
2019-02-25T01:59:14.793Z,5.81
2019-02-25T02:01:14.857Z,5.81
2019-02-25T02:03:14.845Z,5.69
2019-02-25T02:05:14.747Z,5.69
2019-02-25T02:07:14.834Z,5.69
2019-02-25T02:09:14.827Z,5.63
2019-02-25T02:11:14.852Z,5.63
2019-02-25T02:11:31.708Z,5.69
2019-02-25T02:13:14.809Z,5.63
2019-02-25T02:15:14.806Z,5.56
2019-02-25T02:17:15.809Z,5.5
2019-02-25T02:19:14.918Z,5.5
2019-02-25T02:21:15.777Z,5.5
2019-02-25T02:23:14.803Z,5.5
2019-02-25T02:25:14.841Z,5.5
2019-02-25T02:26:31.769Z,5.5
2019-02-25T02:27:14.800Z,5.5
2019-02-25T02:29:14.836Z,5.5
2019-02-25T02:31:14.821Z,5.38
2019-02-25T02:33:14.836Z,5.31
2019-02-25T02:35:14.872Z,5.13
2019-02-25T02:37:14.846Z,5.13
2019-02-25T02:39:14.824Z,5
2019-02-25T02:41:15.839Z,5
2019-02-25T02:41:31.790Z,5
2019-02-25T02:43:14.855Z,4.94
2019-02-25T02:45:14.851Z,4.94
2019-02-25T02:47:14.843Z,4.88
2019-02-25T02:49:14.857Z,4.88
2019-02-25T02:51:14.819Z,4.94
2019-02-25T02:53:14.782Z,5
2019-02-25T02:55:14.859Z,4.94
2019-02-25T02:56:31.864Z,4.94
2019-02-25T02:57:14.813Z,4.94
2019-02-25T02:59:14.814Z,4.94
2019-02-25T03:01:14.840Z,5
2019-02-25T03:03:14.822Z,5
2019-02-25T03:05:14.846Z,4.94
2019-02-25T03:07:14.834Z,4.88
2019-02-25T03:09:14.676Z,4.81
2019-02-25T03:11:14.862Z,4.81
2019-02-25T03:11:31.735Z,4.81
2019-02-25T03:13:14.831Z,4.81
2019-02-25T03:15:15.814Z,4.88
2019-02-25T03:17:14.843Z,4.88
2019-02-25T03:19:14.843Z,4.88
2019-02-25T03:21:14.823Z,4.75
2019-02-25T03:23:14.844Z,4.75
2019-02-25T03:25:14.810Z,4.88
2019-02-25T03:26:31.785Z,4.81
2019-02-25T03:27:14.833Z,4.81
2019-02-25T03:29:14.852Z,4.81
2019-02-25T03:31:14.916Z,4.81
2019-02-25T03:33:14.825Z,4.81
2019-02-25T03:35:14.734Z,4.81
2019-02-25T03:37:14.837Z,4.81
2019-02-25T03:39:15.844Z,4.81
2019-02-25T03:41:14.866Z,4.75
2019-02-25T03:41:31.775Z,4.81
2019-02-25T03:43:14.863Z,4.75
2019-02-25T03:45:14.655Z,4.69
2019-02-25T03:47:15.831Z,4.63
2019-02-25T03:49:14.820Z,4.63
2019-02-25T03:51:14.877Z,4.56
2019-02-25T03:53:14.865Z,4.5
2019-02-25T03:55:15.717Z,4.5
2019-02-25T03:56:31.712Z,4.44
2019-02-25T03:57:14.850Z,4.44
2019-02-25T03:59:14.837Z,4.38
2019-02-25T04:01:14.818Z,4.38
2019-02-25T04:03:14.872Z,4.44
2019-02-25T04:05:14.838Z,4.5
2019-02-25T04:07:14.829Z,4.44
2019-02-25T04:09:14.823Z,4.44
2019-02-25T04:11:14.824Z,4.44
2019-02-25T04:11:32.682Z,4.44
2019-02-25T04:13:14.768Z,4.44
2019-02-25T04:15:14.885Z,4.44
2019-02-25T04:17:14.881Z,4.38
2019-02-25T04:19:14.671Z,4.31
2019-02-25T04:21:14.830Z,4.31
2019-02-25T04:23:14.842Z,4.19
2019-02-25T04:25:14.795Z,4.13
2019-02-25T04:26:31.826Z,4.13
2019-02-25T04:27:14.872Z,4.13
2019-02-25T04:29:15.696Z,4.13
2019-02-25T04:31:14.851Z,4.13
2019-02-25T04:33:14.920Z,4.13
2019-02-25T04:35:15.622Z,4.13
2019-02-25T04:37:14.786Z,4.19
2019-02-25T04:39:14.853Z,4.19
2019-02-25T04:41:16.704Z,4.19
2019-02-25T04:41:32.536Z,4.19
2019-02-25T04:43:14.826Z,4.25
2019-02-25T04:45:14.859Z,4.25
2019-02-25T04:47:14.825Z,4.25
2019-02-25T04:49:14.872Z,4.31
2019-02-25T04:51:14.825Z,4.31
2019-02-25T04:53:14.830Z,4.31
2019-02-25T04:55:14.825Z,4.25
2019-02-25T04:56:31.764Z,4.31
2019-02-25T04:57:14.831Z,4.25
2019-02-25T04:59:14.874Z,4.25
2019-02-25T05:01:14.868Z,4.25
2019-02-25T05:03:14.830Z,4.19
2019-02-25T05:05:14.845Z,4.13
2019-02-25T05:07:14.809Z,4.19
2019-02-25T05:09:14.844Z,4.13
2019-02-25T05:11:14.769Z,4.13
2019-02-25T05:11:31.857Z,4.13
2019-02-25T05:13:14.854Z,4.06
2019-02-25T05:15:15.823Z,4
2019-02-25T05:17:14.813Z,4
2019-02-25T05:19:14.825Z,4
2019-02-25T05:21:14.805Z,3.94
2019-02-25T05:23:14.820Z,3.94
2019-02-25T05:25:14.844Z,3.88
2019-02-25T05:26:31.812Z,3.88
2019-02-25T05:27:14.848Z,3.88
2019-02-25T05:29:14.803Z,3.81
2019-02-25T05:31:14.816Z,3.75
2019-02-25T05:33:14.813Z,3.75
2019-02-25T05:35:14.850Z,3.75
2019-02-25T05:37:14.729Z,3.94
2019-02-25T05:39:14.798Z,3.94
2019-02-25T05:41:14.846Z,3.94
2019-02-25T05:41:31.789Z,3.94
2019-02-25T05:43:14.859Z,3.94
2019-02-25T05:45:14.854Z,4
2019-02-25T05:47:14.853Z,4
2019-02-25T05:49:14.822Z,4
2019-02-25T05:51:14.862Z,4.06
2019-02-25T05:53:14.828Z,4
2019-02-25T05:55:14.836Z,4
2019-02-25T05:56:31.792Z,3.94
2019-02-25T05:57:14.839Z,3.94
2019-02-25T05:59:14.834Z,3.88
2019-02-25T06:01:14.902Z,3.81
2019-02-25T06:03:14.853Z,3.81
2019-02-25T06:05:14.825Z,3.75
2019-02-25T06:07:14.817Z,3.69
2019-02-25T06:09:14.764Z,3.69
2019-02-25T06:11:14.875Z,3.69
2019-02-25T06:11:31.779Z,3.75
2019-02-25T06:13:14.849Z,3.69
2019-02-25T06:15:14.924Z,3.75
2019-02-25T06:17:14.926Z,3.69
2019-02-25T06:19:14.827Z,3.69
2019-02-25T06:21:15.012Z,3.75
2019-02-25T06:23:14.823Z,3.69
2019-02-25T06:25:14.883Z,3.75
2019-02-25T06:26:31.681Z,3.81
2019-02-25T06:27:14.811Z,3.75
2019-02-25T06:29:14.826Z,3.75
2019-02-25T06:31:14.821Z,3.88
2019-02-25T06:33:14.829Z,3.88
2019-02-25T06:35:14.720Z,3.94
2019-02-25T06:37:14.822Z,3.94
2019-02-25T06:39:15.780Z,3.94
2019-02-25T06:41:14.810Z,4
2019-02-25T06:41:31.756Z,4
2019-02-25T06:43:14.804Z,4.06
2019-02-25T06:45:14.863Z,4.06
2019-02-25T06:47:14.852Z,4.19
2019-02-25T06:49:14.838Z,4.25
2019-02-25T06:51:14.807Z,4.25
2019-02-25T06:53:14.855Z,4.38
2019-02-25T06:55:14.921Z,4.5
2019-02-25T06:56:32.703Z,4.56
2019-02-25T06:57:14.877Z,4.5
2019-02-25T06:59:14.848Z,4.5
2019-02-25T07:01:14.873Z,4.5
2019-02-25T07:03:14.870Z,4.5
2019-02-25T07:05:14.810Z,4.5
2019-02-25T07:07:14.846Z,4.5
2019-02-25T07:09:15.801Z,4.5
2019-02-25T07:11:14.860Z,4.63
2019-02-25T07:11:31.790Z,4.63
2019-02-25T07:13:14.833Z,4.69
2019-02-25T07:15:14.811Z,4.69
2019-02-25T07:17:14.826Z,4.75
2019-02-25T07:19:14.849Z,4.75
2019-02-25T07:21:15.528Z,4.81
2019-02-25T07:23:14.859Z,4.88
2019-02-25T07:25:14.875Z,4.88
2019-02-25T07:26:31.802Z,4.88
2019-02-25T07:27:14.926Z,4.88
2019-02-25T07:29:14.812Z,4.88
2019-02-25T07:31:15.807Z,4.94
2019-02-25T07:33:14.856Z,5
2019-02-25T07:35:14.950Z,5
2019-02-25T07:37:14.916Z,5
2019-02-25T07:39:14.824Z,5
2019-02-25T07:41:14.824Z,5.06
2019-02-25T07:41:31.689Z,5.06
2019-02-25T07:43:15.453Z,5.06
2019-02-25T07:45:15.713Z,5.19
2019-02-25T07:47:14.839Z,5.19
2019-02-25T07:49:14.820Z,5.25
2019-02-25T07:51:14.827Z,5.31
2019-02-25T07:53:14.841Z,5.38
2019-02-25T07:55:14.839Z,5.44
2019-02-25T07:56:31.732Z,5.56
2019-02-25T07:57:14.831Z,5.56
2019-02-25T07:59:14.813Z,5.56
2019-02-25T08:01:14.880Z,5.63
2019-02-25T08:03:14.819Z,5.63
2019-02-25T08:05:14.831Z,5.75
2019-02-25T08:07:14.849Z,5.88
2019-02-25T08:09:14.840Z,5.94
2019-02-25T08:11:14.821Z,6
2019-02-25T08:11:31.784Z,6
2019-02-25T08:13:14.651Z,6.06
2019-02-25T08:15:14.809Z,6.13
2019-02-25T08:17:15.755Z,6.25
2019-02-25T08:19:14.859Z,6.44
2019-02-25T08:21:14.862Z,6.5
2019-02-25T08:23:14.849Z,6.63
2019-02-25T08:25:14.810Z,6.75
2019-02-25T08:26:31.796Z,6.81
2019-02-25T08:27:14.850Z,6.75
2019-02-25T08:29:14.807Z,6.75
2019-02-25T08:31:14.870Z,6.81
2019-02-25T08:33:14.831Z,6.81
2019-02-25T08:35:14.807Z,6.88
2019-02-25T08:37:14.834Z,6.81
2019-02-25T08:39:14.828Z,6.81
2019-02-25T08:41:14.863Z,6.88
2019-02-25T08:41:32.654Z,6.88
2019-02-25T08:43:14.954Z,6.81
2019-02-25T08:45:14.801Z,6.88
2019-02-25T08:47:14.678Z,7
2019-02-25T08:49:15.867Z,7.06
2019-02-25T08:51:15.692Z,7.06
2019-02-25T08:53:14.863Z,7.13
2019-02-25T08:55:14.884Z,7.06
2019-02-25T08:56:31.777Z,7.13
2019-02-25T08:57:14.854Z,7.19
2019-02-25T08:59:14.733Z,7.13
2019-02-25T09:01:15.510Z,7.13
2019-02-25T09:03:14.832Z,7.06
2019-02-25T09:05:14.817Z,7.13
2019-02-25T09:07:14.844Z,7.5
2019-02-25T09:09:15.634Z,7.5
2019-02-25T09:11:14.758Z,7.56
2019-02-25T09:11:31.668Z,7.56
2019-02-25T09:13:14.817Z,7.56
2019-02-25T09:15:16.713Z,8.06
2019-02-25T09:17:16.164Z,8.25
2019-02-25T09:19:14.802Z,8.06
2019-02-25T09:21:14.806Z,8.25
2019-02-25T09:23:14.801Z,8.31
2019-02-25T09:25:14.764Z,8.19
2019-02-25T09:26:32.715Z,8.31
2019-02-25T09:27:15.747Z,8.31
2019-02-25T09:29:15.750Z,8.31
2019-02-25T09:31:14.733Z,8.88
2019-02-25T09:33:14.845Z,9.06
2019-02-25T09:35:14.814Z,9.31
2019-02-25T09:37:14.754Z,9.56
2019-02-25T09:39:16.612Z,9.5
2019-02-25T09:41:15.833Z,9.56
2019-02-25T09:41:31.799Z,9.56
2019-02-25T09:43:14.796Z,9.31
2019-02-25T09:45:14.872Z,9.38
2019-02-25T09:47:14.845Z,9.56
2019-02-25T09:49:14.836Z,9.56
2019-02-25T09:51:14.889Z,9.5
2019-02-25T09:53:14.845Z,9.5
2019-02-25T09:55:15.849Z,9.38
2019-02-25T09:56:31.825Z,9.31
2019-02-25T09:57:14.845Z,9.38
2019-02-25T09:59:14.846Z,9.31
2019-02-25T10:01:14.836Z,9.31
2019-02-25T10:03:14.858Z,9.44
2019-02-25T10:05:14.864Z,9.44
2019-02-25T10:07:15.682Z,9.56
2019-02-25T10:09:14.811Z,9.63
2019-02-25T10:11:14.816Z,9.63
2019-02-25T10:11:31.733Z,9.63
2019-02-25T10:13:15.755Z,9.63
2019-02-25T10:15:14.834Z,9.63
2019-02-25T10:17:23.406Z,9.56
2019-02-25T10:19:14.918Z,9.56
2019-02-25T10:21:14.871Z,9.63
2019-02-25T10:23:14.818Z,9.56
2019-02-25T10:25:14.962Z,9.88
2019-02-25T10:26:31.828Z,9.88
2019-02-25T10:27:14.853Z,9.88
2019-02-25T10:29:15.785Z,9.81
2019-02-25T10:31:15.653Z,9.81
2019-02-25T10:33:14.878Z,9.88
2019-02-25T10:35:14.830Z,9.88
2019-02-25T10:37:15.452Z,9.88
2019-02-25T10:39:15.364Z,9.88
2019-02-25T10:41:16.555Z,9.88
2019-02-25T10:41:32.563Z,9.88
2019-02-25T10:43:15.701Z,9.88
2019-02-25T10:45:14.663Z,9.94
2019-02-25T10:47:15.664Z,10.13
2019-02-25T10:49:14.910Z,10.06
2019-02-25T10:51:15.671Z,10
2019-02-25T10:53:15.574Z,10.13
2019-02-25T10:55:14.821Z,10.31
2019-02-25T10:56:31.691Z,10.44
2019-02-25T10:57:14.828Z,10.56
2019-02-25T10:59:14.781Z,10.63
2019-02-25T11:01:17.455Z,10.56
2019-02-25T11:03:15.266Z,10.69
2019-02-25T11:05:14.827Z,10.63
2019-02-25T11:07:14.816Z,10.69
2019-02-25T11:09:15.761Z,10.69
2019-02-25T11:11:16.280Z,10.75
2019-02-25T11:11:32.667Z,10.81
2019-02-25T11:13:14.889Z,10.75
2019-02-25T11:15:15.979Z,10.94
2019-02-25T11:17:16.074Z,10.88
2019-02-25T11:19:14.800Z,10.88
2019-02-25T11:21:14.843Z,11.06
2019-02-25T11:23:16.667Z,11.13
2019-02-25T11:25:14.913Z,11.13
2019-02-25T11:26:32.825Z,11.25
2019-02-25T11:27:14.823Z,11.25
2019-02-25T11:29:16.322Z,11.31
2019-02-25T11:31:15.366Z,11.25
2019-02-25T11:33:14.821Z,11.31
2019-02-25T11:35:14.874Z,11.31
2019-02-25T11:37:16.548Z,11.38
2019-02-25T11:39:14.802Z,11.44
2019-02-25T11:41:14.819Z,11.44
2019-02-25T11:41:34.108Z,11.44
2019-02-25T11:43:16.554Z,11.38
2019-02-25T11:45:14.848Z,11.56
2019-02-25T11:47:14.835Z,11.5
2019-02-25T11:49:14.855Z,11.5
2019-02-25T11:51:14.867Z,11.5
2019-02-25T11:53:14.813Z,11.5
2019-02-25T11:55:14.739Z,11.69
2019-02-25T11:56:31.802Z,11.75
2019-02-25T11:57:16.883Z,11.69
2019-02-25T11:59:14.862Z,11.69
2019-02-25T12:01:14.832Z,11.75
2019-02-25T12:03:15.694Z,12.06
2019-02-25T12:05:14.810Z,11.88
2019-02-25T12:07:14.853Z,11.94
2019-02-25T12:09:14.823Z,12.13
2019-02-25T12:11:14.813Z,12.06
2019-02-25T12:11:31.797Z,12
2019-02-25T12:13:14.855Z,12.19
2019-02-25T12:15:14.812Z,12
2019-02-25T12:17:14.825Z,12.13
2019-02-25T12:19:18.038Z,12.25
2019-02-25T12:21:14.885Z,12.31
2019-02-25T12:23:14.796Z,12.25
2019-02-25T12:25:14.836Z,12.38
2019-02-25T12:26:31.839Z,12.31
2019-02-25T12:27:14.657Z,12.25
2019-02-25T12:29:14.812Z,12.25
2019-02-25T12:31:15.747Z,12.44
2019-02-25T12:33:15.834Z,12.44
2019-02-25T12:35:16.681Z,12.69
2019-02-25T12:37:16.888Z,12.63
2019-02-25T12:39:14.814Z,12.63
2019-02-25T12:41:15.715Z,12.69
2019-02-25T12:41:32.587Z,12.69
2019-02-25T12:43:14.817Z,12.75
2019-02-25T12:45:14.900Z,12.81
2019-02-25T12:47:14.841Z,12.75
2019-02-25T12:49:14.903Z,12.81
2019-02-25T12:51:14.904Z,12.75
2019-02-25T12:53:15.593Z,12.94
2019-02-25T12:55:14.815Z,13
2019-02-25T12:56:31.915Z,12.94
2019-02-25T12:57:14.837Z,13.06
2019-02-25T12:59:14.806Z,13.06
2019-02-25T13:01:14.826Z,13.06
2019-02-25T13:03:14.825Z,13.19
2019-02-25T13:05:14.847Z,13.13
2019-02-25T13:07:15.020Z,13.25
2019-02-25T13:09:14.856Z,13.25
2019-02-25T13:11:15.842Z,13.44
2019-02-25T13:11:31.783Z,13.38
2019-02-25T13:13:14.806Z,13.38
2019-02-25T13:15:14.828Z,13.25
2019-02-25T13:17:14.836Z,13.19
2019-02-25T13:19:14.848Z,13.31
2019-02-25T13:21:14.755Z,13.38
2019-02-25T13:23:14.804Z,13.44
2019-02-25T13:25:14.820Z,13.38
2019-02-25T13:26:32.262Z,13.31
2019-02-25T13:27:14.861Z,13.38
2019-02-25T13:29:14.891Z,13.38
2019-02-25T13:31:14.790Z,13.56
2019-02-25T13:33:14.835Z,13.56
2019-02-25T13:35:14.895Z,13.56
2019-02-25T13:37:14.872Z,13.56
2019-02-25T13:39:14.674Z,13.56
2019-02-25T13:41:14.820Z,13.75
2019-02-25T13:41:31.768Z,13.75
2019-02-25T13:43:14.922Z,13.81
2019-02-25T13:45:14.841Z,13.75
2019-02-25T13:47:14.884Z,13.69
2019-02-25T13:49:14.807Z,13.88
2019-02-25T13:51:14.744Z,13.81
2019-02-25T13:53:14.940Z,13.88
2019-02-25T13:55:14.805Z,13.88
2019-02-25T13:56:31.825Z,13.81
2019-02-25T13:57:14.873Z,13.81
2019-02-25T13:59:14.826Z,13.88
2019-02-25T14:01:14.821Z,13.88
2019-02-25T14:03:14.754Z,13.81
2019-02-25T14:05:14.811Z,13.94
2019-02-25T14:07:14.856Z,13.94
2019-02-25T14:09:14.847Z,13.94
2019-02-25T14:11:14.877Z,13.94
2019-02-25T14:11:31.793Z,13.94
2019-02-25T14:13:14.857Z,14
2019-02-25T14:15:14.850Z,14
2019-02-25T14:17:14.870Z,14
2019-02-25T14:19:14.734Z,13.94
2019-02-25T14:21:14.724Z,13.88
2019-02-25T14:23:16.101Z,14
2019-02-25T14:25:14.816Z,14.06
2019-02-25T14:26:31.791Z,14.06
2019-02-25T14:27:14.841Z,14.06
2019-02-25T14:29:14.874Z,14.06
2019-02-25T14:31:14.825Z,14.06
2019-02-25T14:33:15.851Z,14.13
2019-02-25T14:35:14.821Z,14.13
2019-02-25T14:37:15.709Z,14.31
2019-02-25T14:39:14.919Z,14.38
2019-02-25T14:41:16.045Z,14.31
2019-02-25T14:41:31.775Z,14.31
2019-02-25T14:43:15.181Z,14.25
2019-02-25T14:45:17.296Z,14.38
2019-02-25T14:47:20.352Z,14.56
2019-02-25T14:49:14.811Z,14.56
2019-02-25T14:51:14.894Z,14.56
2019-02-25T14:53:14.811Z,14.56
2019-02-25T14:55:14.836Z,14.63
2019-02-25T14:56:32.623Z,14.69
2019-02-25T14:57:15.348Z,14.75
2019-02-25T14:59:15.493Z,15
2019-02-25T15:01:14.816Z,15.5
2019-02-25T15:03:14.879Z,15.88
2019-02-25T15:05:15.507Z,16.19
2019-02-25T15:07:15.210Z,16.81
2019-02-25T15:09:16.148Z,16.94
2019-02-25T15:11:14.807Z,16.88
2019-02-25T15:11:31.749Z,16.88
2019-02-25T15:13:15.756Z,16.88
2019-02-25T15:15:14.815Z,17.06
2019-02-25T15:17:14.949Z,17.38
2019-02-25T15:19:15.439Z,17.44
2019-02-25T15:21:15.886Z,17.75
2019-02-25T15:23:16.682Z,17.44
2019-02-25T15:25:15.826Z,17.13
2019-02-25T15:26:31.804Z,17.25
2019-02-25T15:27:14.825Z,17.13
2019-02-25T15:29:14.814Z,17.5
2019-02-25T15:31:16.452Z,17.13
2019-02-25T15:33:14.775Z,17.13
2019-02-25T15:35:14.758Z,17.5
2019-02-25T15:37:15.831Z,17.31
2019-02-25T15:39:14.873Z,17.06
2019-02-25T15:41:14.810Z,16.88
2019-02-25T15:41:31.799Z,16.94
2019-02-25T15:43:18.077Z,16.88
2019-02-25T15:45:14.729Z,16.94
2019-02-25T15:47:15.110Z,17.5
2019-02-25T15:49:17.158Z,17.31
2019-02-25T15:51:15.781Z,17.63
2019-02-25T15:53:16.073Z,17.38
2019-02-25T15:55:16.684Z,17.44
2019-02-25T15:56:31.735Z,17.31
2019-02-25T15:57:14.908Z,17.25
2019-02-25T15:59:14.830Z,17.31
2019-02-25T16:01:14.885Z,17.5
2019-02-25T16:03:16.251Z,17.19
2019-02-25T16:05:14.907Z,16.94
2019-02-25T16:07:14.839Z,16.94
2019-02-25T16:09:17.003Z,17.06
2019-02-25T16:11:16.259Z,16.81
2019-02-25T16:11:31.800Z,16.81
2019-02-25T16:13:14.915Z,16.63
2019-02-25T16:15:15.230Z,16.69
2019-02-25T16:17:14.805Z,16.44
2019-02-25T16:19:16.912Z,16.31
2019-02-25T16:21:14.842Z,16
2019-02-25T16:23:14.855Z,15.94
2019-02-25T16:25:15.819Z,15.81
2019-02-25T16:26:32.424Z,15.94
2019-02-25T16:27:16.777Z,15.88
2019-02-25T16:29:14.876Z,15.69
2019-02-25T16:31:14.913Z,15.75
2019-02-25T16:33:14.839Z,15.81
2019-02-25T16:35:14.848Z,15.88
2019-02-25T16:37:17.579Z,16.06
2019-02-25T16:39:14.868Z,16.06
2019-02-25T16:41:15.999Z,15.81
2019-02-25T16:41:32.301Z,15.81
2019-02-25T16:43:14.841Z,15.75
2019-02-25T16:45:14.845Z,15.56
2019-02-25T16:47:16.348Z,15.5
2019-02-25T16:49:14.794Z,15.5
2019-02-25T16:51:14.828Z,15.25
2019-02-25T16:53:15.375Z,15.06
2019-02-25T16:55:15.511Z,14.81
2019-02-25T16:56:32.623Z,14.81
2019-02-25T16:57:16.369Z,14.81
2019-02-25T16:59:15.726Z,14.5
2019-02-25T17:01:14.883Z,14.31
2019-02-25T17:03:16.068Z,14.19
2019-02-25T17:05:14.821Z,14.13
2019-02-25T17:07:16.063Z,14
2019-02-25T17:09:16.099Z,13.88
2019-02-25T17:11:17.437Z,13.81
2019-02-25T17:11:31.791Z,13.75
2019-02-25T17:13:15.424Z,13.63
2019-02-25T17:15:14.880Z,13.56
2019-02-25T17:17:14.816Z,13.5
2019-02-25T17:19:19.610Z,13.38
2019-02-25T17:21:14.840Z,13.31
2019-02-25T17:23:15.749Z,13.25
2019-02-25T17:25:14.820Z,13.19
2019-02-25T17:26:31.771Z,13.13
2019-02-25T17:27:15.689Z,13.13
2019-02-25T17:29:14.845Z,13.06
2019-02-25T17:31:16.242Z,13
2019-02-25T17:33:14.952Z,13
2019-02-25T17:35:14.837Z,12.94
2019-02-25T17:37:15.402Z,12.94
2019-02-25T17:39:15.483Z,12.88
2019-02-25T17:41:14.788Z,12.81
2019-02-25T17:41:33.119Z,12.81
2019-02-25T17:43:15.679Z,12.75
2019-02-25T17:45:14.898Z,12.69
2019-02-25T17:47:23.973Z,12.69
2019-02-25T17:49:16.661Z,12.63
2019-02-25T17:51:16.131Z,12.5
2019-02-25T17:53:14.814Z,12.5
2019-02-25T17:55:15.807Z,12.44
2019-02-25T17:56:31.821Z,12.44
2019-02-25T17:57:14.864Z,12.44
2019-02-25T17:59:14.834Z,12.38
2019-02-25T18:01:17.328Z,12.38
2019-02-25T18:03:15.425Z,12.31
2019-02-25T18:05:16.746Z,12.19
2019-02-25T18:07:14.879Z,12.19
2019-02-25T18:09:16.012Z,12.19
2019-02-25T18:11:15.720Z,12.19
2019-02-25T18:11:32.532Z,12.13
2019-02-25T18:13:14.906Z,12.06
2019-02-25T18:15:15.699Z,12.06
2019-02-25T18:17:16.543Z,12.06
2019-02-25T18:19:15.765Z,12
2019-02-25T18:21:14.891Z,12
2019-02-25T18:23:14.894Z,11.94
2019-02-25T18:25:15.762Z,11.88
2019-02-25T18:26:31.827Z,11.81
2019-02-25T18:27:14.912Z,11.81
2019-02-25T18:29:15.966Z,11.75
2019-02-25T18:31:15.819Z,11.75
2019-02-25T18:33:14.868Z,11.81
2019-02-25T18:35:16.386Z,11.69
2019-02-25T18:37:15.542Z,11.75
2019-02-25T18:39:14.843Z,11.75
2019-02-25T18:41:14.899Z,11.75
2019-02-25T18:41:34.081Z,11.75
2019-02-25T18:43:14.886Z,11.69
2019-02-25T18:45:15.985Z,11.69
2019-02-25T18:47:16.443Z,11.69
2019-02-25T18:49:14.812Z,11.69
2019-02-25T18:51:14.860Z,11.63
2019-02-25T18:53:16.090Z,11.63
2019-02-25T18:55:14.829Z,11.56
2019-02-25T18:56:33.275Z,11.5
2019-02-25T18:57:14.900Z,11.5
2019-02-25T18:59:17.926Z,11.44
2019-02-25T19:01:15.522Z,11.44
2019-02-25T19:03:14.851Z,11.31
2019-02-25T19:05:14.986Z,11.25
2019-02-25T19:07:14.959Z,11.19
2019-02-25T19:09:16.058Z,11.13
2019-02-25T19:11:15.079Z,11.06
2019-02-25T19:11:31.661Z,11.06
2019-02-25T19:13:16.544Z,11
2019-02-25T19:15:14.911Z,10.88
2019-02-25T19:17:14.894Z,10.75
2019-02-25T19:19:16.563Z,10.75
2019-02-25T19:21:14.889Z,10.69
2019-02-25T19:23:16.528Z,10.63
2019-02-25T19:25:15.493Z,10.63
2019-02-25T19:26:31.798Z,10.69
2019-02-25T19:27:14.905Z,10.69
2019-02-25T19:29:15.200Z,10.63
2019-02-25T19:31:14.883Z,10.63
2019-02-25T19:33:19.209Z,10.63
2019-02-25T19:35:14.977Z,10.56
2019-02-25T19:37:15.022Z,10.5
2019-02-25T19:39:16.782Z,10.44
2019-02-25T19:41:15.291Z,10.38
2019-02-25T19:41:32.698Z,10.38
2019-02-25T19:43:14.946Z,10.38
2019-02-25T19:45:14.859Z,10.38
2019-02-25T19:47:16.724Z,10.38
2019-02-25T19:49:15.958Z,10.38
2019-02-25T19:51:14.960Z,10.38
2019-02-25T19:53:17.225Z,10.31
2019-02-25T19:55:15.727Z,10.31
2019-02-25T19:56:31.712Z,10.25
2019-02-25T19:57:16.567Z,10.25
2019-02-25T20:01:14.879Z,10.19
2019-02-25T20:03:15.870Z,10.06
2019-02-25T20:05:16.657Z,10
2019-02-25T20:07:15.892Z,10
2019-02-25T20:09:14.915Z,10
2019-02-25T20:11:14.942Z,9.88
2019-02-25T20:11:32.658Z,9.88
2019-02-25T20:13:14.874Z,9.88
2019-02-25T20:15:18.590Z,9.94
2019-02-25T20:17:14.961Z,9.94
2019-02-25T20:19:16.658Z,9.88
2019-02-25T20:21:14.879Z,9.88
2019-02-25T20:23:14.887Z,9.88
2019-02-25T20:25:16.633Z,9.88
2019-02-25T20:26:32.615Z,9.88
2019-02-25T20:27:14.914Z,9.81
2019-02-25T20:29:14.949Z,9.75
2019-02-25T20:31:16.684Z,9.81
2019-02-25T20:33:14.906Z,9.81
2019-02-25T20:35:15.681Z,9.75
2019-02-25T20:37:16.321Z,9.75
2019-02-25T20:39:16.869Z,9.81
2019-02-25T20:41:16.498Z,9.81
2019-02-25T20:41:31.760Z,9.81
2019-02-25T20:43:17.111Z,9.75
2019-02-25T20:45:19.051Z,9.81
2019-02-25T20:47:14.939Z,9.81
2019-02-25T20:49:17.951Z,9.75
2019-02-25T20:51:14.921Z,9.75
2019-02-25T20:53:15.775Z,9.69
2019-02-25T20:55:14.925Z,9.63
2019-02-25T20:56:33.252Z,9.63
2019-02-25T20:57:16.412Z,9.63
2019-02-25T20:59:14.912Z,9.63
2019-02-25T21:01:16.871Z,9.63
2019-02-25T21:03:16.548Z,9.56
2019-02-25T21:05:16.832Z,9.56
2019-02-25T21:07:14.920Z,9.56
2019-02-25T21:09:14.913Z,9.5
2019-02-25T21:11:15.783Z,9.56
2019-02-25T21:11:31.777Z,9.56
2019-02-25T21:13:14.935Z,9.56
2019-02-25T21:15:14.967Z,9.56
2019-02-25T21:17:14.929Z,9.5
2019-02-25T21:19:17.248Z,9.44
2019-02-25T21:21:16.224Z,9.44
2019-02-25T21:23:14.929Z,9.44
2019-02-25T21:25:14.935Z,9.44
2019-02-25T21:26:33.544Z,9.38
2019-02-25T21:27:14.945Z,9.38
2019-02-25T21:29:15.816Z,9.38
2019-02-25T21:31:17.230Z,9.38
2019-02-25T21:33:17.216Z,9.38
2019-02-25T21:35:15.812Z,9.38
2019-02-25T21:37:14.962Z,9.31
2019-02-25T21:39:16.759Z,9.31
2019-02-25T21:41:15.457Z,9.25
2019-02-25T21:41:31.777Z,9.25
2019-02-25T21:43:16.452Z,9.19
2019-02-25T21:45:16.572Z,9.13
2019-02-25T21:47:14.990Z,9.06
2019-02-25T21:49:14.981Z,9.13
2019-02-25T21:51:14.983Z,9.13
2019-02-25T21:53:16.017Z,9.06
2019-02-25T21:55:15.677Z,9.13
2019-02-25T21:56:31.778Z,9.06
2019-02-25T21:57:14.890Z,9.13
2019-02-25T21:59:17.009Z,9.06
2019-02-25T22:01:14.993Z,9.06
2019-02-25T22:03:15.580Z,9
2019-02-25T22:05:16.539Z,8.94
2019-02-25T22:07:17.747Z,8.88
2019-02-25T22:09:14.964Z,8.94
2019-02-25T22:11:17.259Z,8.88
2019-02-25T22:11:31.803Z,8.81
2019-02-25T22:13:16.337Z,8.75
2019-02-25T22:15:15.737Z,8.69
2019-02-25T22:17:15.469Z,8.75
2019-02-25T22:19:16.393Z,8.81
2019-02-25T22:21:17.007Z,8.81
2019-02-25T22:23:14.976Z,8.81
2019-02-25T22:25:15.708Z,8.75
2019-02-25T22:26:33.322Z,8.75
2019-02-25T22:27:16.218Z,8.75
2019-02-25T22:29:14.984Z,8.81
2019-02-25T22:31:16.129Z,8.75
2019-02-25T22:33:26.590Z,8.81
2019-02-25T22:35:15.756Z,8.88
2019-02-25T22:37:17.367Z,8.88
2019-02-25T22:39:15.000Z,8.88
2019-02-25T22:41:16.591Z,8.88
2019-02-25T22:41:31.767Z,8.88
2019-02-25T22:43:16.391Z,8.88
2019-02-25T22:45:18.693Z,8.88
2019-02-25T22:47:16.051Z,8.81
2019-02-25T22:49:15.033Z,8.81
2019-02-25T22:51:15.028Z,8.81
2019-02-25T22:53:15.693Z,8.81
2019-02-25T22:55:15.844Z,8.81
2019-02-25T22:56:31.835Z,8.75
2019-02-25T22:57:16.712Z,8.69
2019-02-25T22:59:15.054Z,8.63
2019-02-25T23:01:17.996Z,8.69
2019-02-25T23:03:15.847Z,8.63
2019-02-25T23:05:16.757Z,8.63
2019-02-25T23:07:15.702Z,8.56
2019-02-25T23:09:16.461Z,8.5
2019-02-25T23:11:16.649Z,8.5
2019-02-25T23:11:32.584Z,8.5
2019-02-25T23:13:14.962Z,8.44
2019-02-25T23:15:15.002Z,8.38
2019-02-25T23:17:17.041Z,8.31
2019-02-25T23:19:15.775Z,8.31
2019-02-25T23:21:23.378Z,8.25
2019-02-25T23:23:14.951Z,8.19
2019-02-25T23:25:14.973Z,8.19